Time;durP1;ratioP1;P1;durP2;ratioP2;P2;SDS_P1;SDS_P2;PMS_P1;PMS_P2;Temp;Humidity;BMP_temperature;BMP_pressure;BME280_temperature;BME280_humidity;BME280_pressure;Samples;Min_cycle;Max_cycle;Signal;HPM_P1;HPM_P2
2022/03/09 00:01:37;;;;;;;;;;;2.90;99.90;;;;;;5100546;28;20265;-79
2022/03/09 00:04:02;;;;;;;;;;;2.80;99.90;;;;;;5130651;27;19930;-79
2022/03/09 00:06:28;;;;;;;;;;;2.80;99.90;;;;;;5113926;28;20368;-79
2022/03/09 00:08:54;;;;;;;;;;;2.80;99.90;;;;;;5114345;28;19985;-79
2022/03/09 00:11:19;;;;;;;;;;;2.80;99.90;;;;;;5115990;27;20014;-79
2022/03/09 00:13:45;;;;;;;;;;;2.80;99.90;;;;;;5113791;28;20264;-79
2022/03/09 00:16:10;;;;;;;;;;;2.80;99.90;;;;;;5096692;28;20036;-79
2022/03/09 00:18:36;;;;;;;;;;;2.70;99.90;;;;;;5113775;28;20398;-79
2022/03/09 00:21:02;;;;;;;;;;;2.70;99.90;;;;;;5113829;28;20022;-79
2022/03/09 00:23:27;;;;;;;;;;;2.70;99.90;;;;;;5098730;28;19937;-80
2022/03/09 00:25:53;;;;;;;;;;;2.70;99.90;;;;;;5113563;28;19931;-79
2022/03/09 00:28:18;;;;;;;;;;;2.70;99.90;;;;;;5130843;27;19923;-81
2022/03/09 00:30:44;;;;;;;;;;;2.60;99.90;;;;;;5095977;27;20010;-79
2022/03/09 00:33:10;;;;;;;;;;;2.60;99.90;;;;;;5113662;27;19945;-80
2022/03/09 00:35:38;;;;;;;;;;;2.60;99.90;;;;;;5094454;28;20016;-80
2022/03/09 00:38:03;;;;;;;;;;;2.60;99.90;;;;;;5123671;27;19934;-79
2022/03/09 00:40:29;;;;;;;;;;;2.50;99.90;;;;;;5129673;27;19928;-80
2022/03/09 00:42:55;;;;;;;;;;;2.50;99.90;;;;;;5131614;27;19923;-79
2022/03/09 00:45:20;;;;;;;;;;;2.40;99.90;;;;;;5079596;28;19927;-79
2022/03/09 00:47:46;;;;;;;;;;;2.40;99.90;;;;;;5128623;27;19976;-80
2022/03/09 00:50:12;;;;;;;;;;;2.40;99.90;;;;;;5130569;27;19924;-79
2022/03/09 00:52:37;;;;;;;;;;;2.40;99.90;;;;;;5099309;27;19923;-81
2022/03/09 00:55:03;;;;;;;;;;;2.30;99.90;;;;;;5106745;28;19966;-79
2022/03/09 00:57:29;;;;;;;;;;;2.30;99.90;;;;;;5113180;28;19928;-79
2022/03/09 00:59:54;;;;;;;;;;;2.20;99.90;;;;;;5128347;27;19972;-79
2022/03/09 01:02:20;;;;;;;;;;;2.20;99.90;;;;;;5116683;27;19923;-79
2022/03/09 01:04:45;;;;;;;;;;;2.20;99.90;;;;;;5094054;28;19928;-79
2022/03/09 01:07:11;;;;;;;;;;;2.20;99.90;;;;;;5130331;27;20015;-79
2022/03/09 01:09:37;;;;;;;;;;;2.30;99.90;;;;;;5130195;27;19931;-80
2022/03/09 01:12:02;;;;;;;;;;;2.20;99.90;;;;;;5129953;27;20005;-79
2022/03/09 01:14:28;;;;;;;;;;;2.20;99.90;;;;;;5095821;28;20022;-83
2022/03/09 01:16:54;;;;;;;;;;;2.10;99.90;;;;;;5130028;27;19970;-81
2022/03/09 01:19:19;;;;;;;;;;;2.20;99.90;;;;;;5113276;28;19987;-80
2022/03/09 01:21:45;;;;;;;;;;;2.10;99.90;;;;;;5095872;28;19985;-79
2022/03/09 01:24:10;;;;;;;;;;;2.10;99.90;;;;;;5126211;27;19930;-81
2022/03/09 01:26:36;;;;;;;;;;;2.00;99.90;;;;;;5127967;27;19924;-79
2022/03/09 01:29:02;;;;;;;;;;;2.00;99.90;;;;;;5112838;28;19924;-80
2022/03/09 01:31:27;;;;;;;;;;;2.00;99.90;;;;;;5124298;28;20383;-80
2022/03/09 01:33:53;;;;;;;;;;;1.90;99.90;;;;;;5112825;28;20367;-79
2022/03/09 01:36:18;;;;;;;;;;;1.90;99.90;;;;;;5129372;28;20253;-80
2022/03/09 01:38:44;;;;;;;;;;;1.90;99.90;;;;;;5111966;28;19959;-79
2022/03/09 01:41:11;;;;;;;;;;;1.90;99.90;;;;;;5101124;28;20010;-79
2022/03/09 01:43:37;;;;;;;;;;;1.80;99.90;;;;;;5112363;28;19984;-79
2022/03/09 01:46:03;;;;;;;;;;;1.80;99.90;;;;;;5118179;28;19978;-83
2022/03/09 01:48:28;;;;;;;;;;;1.80;99.90;;;;;;5115973;28;19958;-79
2022/03/09 01:50:54;;;;;;;;;;;1.70;99.90;;;;;;5108987;28;19923;-79
2022/03/09 01:53:20;;;;;;;;;;;1.70;99.90;;;;;;5095679;28;19924;-79
2022/03/09 01:55:45;;;;;;;;;;;1.70;99.90;;;;;;5112128;28;19947;-79
2022/03/09 01:58:11;;;;;;;;;;;1.60;99.90;;;;;;5113571;28;19924;-80
2022/03/09 02:00:37;;;;;;;;;;;1.60;99.90;;;;;;5092447;27;19930;-79
2022/03/09 02:03:03;;;;;;;;;;;1.60;99.90;;;;;;5099725;28;19946;-79
2022/03/09 02:05:29;;;;;;;;;;;1.60;99.90;;;;;;5119966;27;19924;-79
2022/03/09 02:10:39;;;;;;;;;;;1.60;99.90;;;;;;5122830;27;19924;-79
2022/03/09 02:13:06;;;;;;;;;;;1.60;99.90;;;;;;5132677;27;19971;-79
2022/03/09 02:15:32;;;;;;;;;;;1.50;99.90;;;;;;5135311;27;20375;-79
2022/03/09 02:17:59;;;;;;;;;;;1.50;99.90;;;;;;5099101;28;19924;-82
2022/03/09 02:20:25;;;;;;;;;;;1.40;99.90;;;;;;5134784;27;20405;-79
2022/03/09 02:22:53;;;;;;;;;;;1.40;99.90;;;;;;5121101;27;19924;-79
2022/03/09 02:25:19;;;;;;;;;;;1.40;99.90;;;;;;5101232;28;19947;-78
2022/03/09 02:27:45;;;;;;;;;;;1.40;99.90;;;;;;5115427;27;19923;-79
2022/03/09 02:30:12;;;;;;;;;;;1.40;99.90;;;;;;5125315;27;19996;-79
2022/03/09 02:32:42;;;;;;;;;;;1.30;99.90;;;;;;5097985;28;19924;-79
2022/03/09 02:35:11;;;;;;;;;;;1.30;99.90;;;;;;5098300;28;19924;-79
2022/03/09 02:37:37;;;;;;;;;;;1.30;99.90;;;;;;5114910;27;20379;-81
2022/03/09 02:40:04;;;;;;;;;;;1.20;99.90;;;;;;5115692;28;19924;-79
2022/03/09 02:42:29;;;;;;;;;;;1.20;99.90;;;;;;5115695;28;19924;-80
2022/03/09 02:44:55;;;;;;;;;;;1.20;99.90;;;;;;5132119;27;19931;-79
2022/03/09 02:47:20;;;;;;;;;;;1.20;99.90;;;;;;5115072;28;19924;-79
2022/03/09 02:49:46;;;;;;;;;;;1.10;99.90;;;;;;5132788;27;20014;-79
2022/03/09 02:52:12;;;;;;;;;;;1.10;99.90;;;;;;5132763;27;20369;-79
2022/03/09 02:54:37;;;;;;;;;;;1.10;99.90;;;;;;5115333;28;20022;-83
2022/03/09 02:57:03;;;;;;;;;;;1.00;99.90;;;;;;5131988;27;20007;-78
2022/03/09 02:59:28;;;;;;;;;;;1.00;99.90;;;;;;5132787;27;20407;-80
2022/03/09 03:01:54;;;;;;;;;;;0.90;99.90;;;;;;5115168;28;19923;-78
2022/03/09 03:04:20;;;;;;;;;;;0.80;99.90;;;;;;5132280;27;20363;-79
2022/03/09 03:06:45;;;;;;;;;;;0.80;99.90;;;;;;5132449;27;19923;-79
2022/03/09 03:09:11;;;;;;;;;;;0.80;99.90;;;;;;5132521;27;20036;-79
2022/03/09 03:11:36;;;;;;;;;;;0.80;99.90;;;;;;5148826;27;19924;-79
2022/03/09 03:14:02;;;;;;;;;;;0.80;99.90;;;;;;5132463;27;20072;-79
2022/03/09 03:16:27;;;;;;;;;;;0.80;99.90;;;;;;5132394;27;20360;-81
2022/03/09 03:18:53;;;;;;;;;;;0.80;99.90;;;;;;5114952;28;19949;-79
2022/03/09 03:21:18;;;;;;;;;;;0.80;99.90;;;;;;5115327;28;19936;-79
2022/03/09 03:23:44;;;;;;;;;;;0.70;99.90;;;;;;5097803;28;20010;-79
2022/03/09 03:26:09;;;;;;;;;;;0.70;99.90;;;;;;5097870;28;20330;-79
2022/03/09 03:28:35;;;;;;;;;;;0.70;99.90;;;;;;5114552;28;19924;-79
2022/03/09 03:31:01;;;;;;;;;;;0.70;99.90;;;;;;5114406;28;19934;-79
2022/03/09 03:33:26;;;;;;;;;;;0.60;99.90;;;;;;5096642;28;19958;-79
2022/03/09 03:35:52;;;;;;;;;;;0.60;99.90;;;;;;5114118;28;19924;-79
2022/03/09 03:38:17;;;;;;;;;;;0.60;99.90;;;;;;5108549;27;19923;-79
2022/03/09 03:40:43;;;;;;;;;;;0.70;99.90;;;;;;5118312;27;19936;-79
2022/03/09 03:43:10;;;;;;;;;;;0.70;99.90;;;;;;5124961;27;20313;-79
2022/03/09 03:45:35;;;;;;;;;;;0.70;99.90;;;;;;5114639;28;20283;-79
2022/03/09 03:48:01;;;;;;;;;;;0.80;99.90;;;;;;5130249;27;19924;-79
2022/03/09 03:50:26;;;;;;;;;;;0.80;99.90;;;;;;5132207;27;19924;-79
2022/03/09 03:52:52;;;;;;;;;;;0.80;99.90;;;;;;5097361;28;20394;-79
2022/03/09 03:55:18;;;;;;;;;;;0.80;99.90;;;;;;5131189;27;19924;-79
2022/03/09 03:57:44;;;;;;;;;;;0.80;99.90;;;;;;5114374;28;19932;-82
2022/03/09 04:00:10;;;;;;;;;;;0.80;99.90;;;;;;5114179;28;19931;-80
2022/03/09 04:02:36;;;;;;;;;;;0.80;99.90;;;;;;5115836;27;20363;-79
2022/03/09 04:05:02;;;;;;;;;;;0.70;99.90;;;;;;5109022;27;19959;-80
2022/03/09 04:07:27;;;;;;;;;;;0.70;99.90;;;;;;5096828;28;20002;-79
2022/03/09 04:09:54;;;;;;;;;;;0.70;99.90;;;;;;5113670;28;20330;-79
2022/03/09 04:12:19;;;;;;;;;;;0.70;99.90;;;;;;5097653;28;19927;-79
2022/03/09 04:14:45;;;;;;;;;;;0.70;99.90;;;;;;5130713;27;20074;-82
2022/03/09 04:17:10;;;;;;;;;;;0.60;99.90;;;;;;5113775;28;19930;-79
2022/03/09 04:19:36;;;;;;;;;;;0.60;99.90;;;;;;5079929;28;19932;-79
2022/03/09 04:22:02;;;;;;;;;;;0.60;99.90;;;;;;5130581;27;19924;-79
2022/03/09 04:24:27;;;;;;;;;;;0.50;99.90;;;;;;5130694;27;19924;-82
2022/03/09 04:26:53;;;;;;;;;;;0.40;99.90;;;;;;5132263;27;19934;-79
2022/03/09 04:29:19;;;;;;;;;;;0.40;99.90;;;;;;5078927;28;19927;-82
2022/03/09 04:31:45;;;;;;;;;;;0.40;99.90;;;;;;5111760;28;19975;-79
2022/03/09 04:34:11;;;;;;;;;;;0.40;99.90;;;;;;5112119;28;19959;-80
2022/03/09 04:36:36;;;;;;;;;;;0.40;99.90;;;;;;5112698;28;19928;-79
2022/03/09 04:39:02;;;;;;;;;;;0.40;99.90;;;;;;5096107;28;19924;-79
2022/03/09 04:41:28;;;;;;;;;;;0.40;99.90;;;;;;5096046;28;20627;-79
2022/03/09 04:43:54;;;;;;;;;;;0.40;99.90;;;;;;5113418;28;20022;-79
2022/03/09 04:46:19;;;;;;;;;;;0.40;99.90;;;;;;5096570;28;20315;-79
2022/03/09 04:48:45;;;;;;;;;;;0.40;99.90;;;;;;5096652;28;20283;-79
2022/03/09 04:51:10;;;;;;;;;;;0.40;99.90;;;;;;5096066;28;20008;-79
2022/03/09 04:53:36;;;;;;;;;;;0.40;99.90;;;;;;5112832;28;20455;-79
2022/03/09 04:56:02;;;;;;;;;;;0.40;99.90;;;;;;5129116;27;19924;-79
2022/03/09 04:58:28;;;;;;;;;;;0.30;99.90;;;;;;5095477;28;20378;-79
2022/03/09 05:00:53;;;;;;;;;;;0.30;99.90;;;;;;5112101;28;19931;-79
2022/03/09 05:03:19;;;;;;;;;;;0.30;99.90;;;;;;5095325;28;19931;-80
2022/03/09 05:05:45;;;;;;;;;;;0.30;99.90;;;;;;5128706;27;19970;-78
2022/03/09 05:08:10;;;;;;;;;;;0.30;99.90;;;;;;5146897;27;19931;-78
2022/03/09 05:10:36;;;;;;;;;;;0.30;99.90;;;;;;5096296;28;19924;-80
2022/03/09 05:13:02;;;;;;;;;;;0.30;99.90;;;;;;5095817;28;19969;-79
2022/03/09 05:15:28;;;;;;;;;;;0.40;99.90;;;;;;5112769;28;19924;-78
2022/03/09 05:17:54;;;;;;;;;;;0.40;99.90;;;;;;5130201;27;19928;-79
2022/03/09 05:20:22;;;;;;;;;;;0.30;99.90;;;;;;5112850;28;19924;-81
2022/03/09 05:22:48;;;;;;;;;;;0.30;99.90;;;;;;5096709;28;20283;-79
2022/03/09 05:25:14;;;;;;;;;;;0.30;99.90;;;;;;5112200;28;19952;-80
2022/03/09 05:27:40;;;;;;;;;;;0.40;99.90;;;;;;5112298;28;20011;-82
2022/03/09 05:30:06;;;;;;;;;;;0.30;99.90;;;;;;5079056;28;19924;-78
2022/03/09 05:32:31;;;;;;;;;;;0.30;99.90;;;;;;5112602;28;20002;-79
2022/03/09 05:34:57;;;;;;;;;;;0.30;99.90;;;;;;5131182;27;20316;-79
2022/03/09 05:37:22;;;;;;;;;;;0.30;99.90;;;;;;5133624;27;19932;-79
2022/03/09 05:39:48;;;;;;;;;;;0.30;99.90;;;;;;5125944;27;19920;-81
2022/03/09 05:42:14;;;;;;;;;;;0.30;99.90;;;;;;5116049;28;20254;-80
2022/03/09 05:44:40;;;;;;;;;;;0.30;99.90;;;;;;5116775;28;19977;-79
2022/03/09 05:47:05;;;;;;;;;;;0.30;99.90;;;;;;5120023;27;20029;-80
2022/03/09 05:49:31;;;;;;;;;;;0.30;99.90;;;;;;5099785;28;20385;-79
2022/03/09 05:51:57;;;;;;;;;;;0.30;99.90;;;;;;5133777;27;19971;-80
2022/03/09 05:54:22;;;;;;;;;;;0.30;99.90;;;;;;5133971;27;20280;-79
2022/03/09 05:56:48;;;;;;;;;;;0.30;99.90;;;;;;5150452;27;19973;-81
2022/03/09 05:59:14;;;;;;;;;;;0.20;99.90;;;;;;5099532;28;19935;-80
2022/03/09 06:01:39;;;;;;;;;;;0.20;99.90;;;;;;5099786;28;20398;-79
2022/03/09 06:04:06;;;;;;;;;;;0.20;99.90;;;;;;5133670;27;19923;-79
2022/03/09 06:06:32;;;;;;;;;;;0.20;99.90;;;;;;5100613;27;19950;-80
2022/03/09 06:08:57;;;;;;;;;;;0.20;99.90;;;;;;5120535;27;19924;-86
2022/03/09 06:11:23;;;;;;;;;;;0.20;99.90;;;;;;5151116;27;19929;-79
2022/03/09 06:13:49;;;;;;;;;;;0.10;99.90;;;;;;5116150;28;20306;-82
2022/03/09 06:16:14;;;;;;;;;;;0.10;99.90;;;;;;5115922;28;19973;-79
2022/03/09 06:18:40;;;;;;;;;;;0.10;99.90;;;;;;5098710;28;19955;-79
2022/03/09 06:21:06;;;;;;;;;;;0.00;99.90;;;;;;5132263;27;19927;-79
2022/03/09 06:23:31;;;;;;;;;;;0.00;99.90;;;;;;5098910;28;19924;-79
2022/03/09 06:25:57;;;;;;;;;;;0.00;99.90;;;;;;5099091;28;19923;-79
2022/03/09 06:28:23;;;;;;;;;;;0.00;99.90;;;;;;5116025;28;20314;-79
2022/03/09 06:30:48;;;;;;;;;;;0.00;99.90;;;;;;5116247;28;19924;-79
2022/03/09 06:33:14;;;;;;;;;;;0.10;99.90;;;;;;5114506;28;19936;-83
2022/03/09 06:35:40;;;;;;;;;;;0.00;99.90;;;;;;5117645;27;19946;-79
2022/03/09 06:38:05;;;;;;;;;;;0.10;99.90;;;;;;5112053;27;20363;-79
2022/03/09 06:40:31;;;;;;;;;;;0.10;99.90;;;;;;5130143;27;19988;-79
2022/03/09 06:42:59;;;;;;;;;;;0.10;99.90;;;;;;5134987;27;19978;-79
2022/03/09 06:45:25;;;;;;;;;;;0.10;99.90;;;;;;5086648;28;19931;-78
2022/03/09 06:47:51;;;;;;;;;;;0.20;99.90;;;;;;5104676;27;19999;-80
2022/03/09 06:50:16;;;;;;;;;;;0.20;99.90;;;;;;5113427;28;20440;-79
2022/03/09 06:52:42;;;;;;;;;;;0.30;99.90;;;;;;5098967;28;19924;-80
2022/03/09 06:55:08;;;;;;;;;;;0.30;99.90;;;;;;5114832;28;19977;-81
2022/03/09 06:57:35;;;;;;;;;;;0.40;99.90;;;;;;5098584;28;19927;-79
2022/03/09 07:00:00;;;;;;;;;;;0.40;99.90;;;;;;5098036;28;19930;-80
2022/03/09 07:02:26;;;;;;;;;;;0.50;99.90;;;;;;5114680;28;19924;-80
2022/03/09 07:04:52;;;;;;;;;;;0.50;99.90;;;;;;5098095;28;19928;-80
2022/03/09 07:07:17;;;;;;;;;;;0.50;99.90;;;;;;5132558;27;19930;-80
2022/03/09 07:09:43;;;;;;;;;;;0.60;99.90;;;;;;5115358;28;19927;-83
2022/03/09 07:12:09;;;;;;;;;;;0.60;99.90;;;;;;5149151;27;19933;-82
2022/03/09 07:14:34;;;;;;;;;;;0.70;99.90;;;;;;5109384;28;19931;-80
2022/03/09 07:17:00;;;;;;;;;;;0.80;99.90;;;;;;5113177;28;19924;-80
2022/03/09 07:19:25;;;;;;;;;;;0.90;99.90;;;;;;5148981;27;19977;-80
2022/03/09 07:21:53;;;;;;;;;;;1.00;99.90;;;;;;5132105;27;20014;-80
2022/03/09 07:24:19;;;;;;;;;;;1.00;99.90;;;;;;5114784;28;19923;-80
2022/03/09 07:26:44;;;;;;;;;;;1.10;99.90;;;;;;5114935;28;19931;-81
2022/03/09 07:29:13;;;;;;;;;;;1.20;99.90;;;;;;5114920;28;19924;-81
2022/03/09 07:31:39;;;;;;;;;;;1.30;99.90;;;;;;5114972;28;20014;-80
2022/03/09 07:34:04;;;;;;;;;;;1.40;99.90;;;;;;5097719;28;19924;-80
2022/03/09 07:36:30;;;;;;;;;;;1.50;99.90;;;;;;5097238;28;19932;-79
2022/03/09 07:38:55;;;;;;;;;;;1.60;99.90;;;;;;5114853;28;19931;-80
2022/03/09 07:41:21;;;;;;;;;;;1.70;99.90;;;;;;5131320;27;20699;-83
2022/03/09 07:43:47;;;;;;;;;;;1.90;99.90;;;;;;5114041;28;19930;-80
2022/03/09 07:46:12;;;;;;;;;;;1.90;99.90;;;;;;5097399;28;19923;-80
2022/03/09 07:48:38;;;;;;;;;;;2.10;99.90;;;;;;5114266;28;19932;-80
2022/03/09 07:51:04;;;;;;;;;;;2.20;99.90;;;;;;5097582;28;19939;-80
2022/03/09 07:53:30;;;;;;;;;;;2.30;99.90;;;;;;5131854;27;20264;-80
2022/03/09 07:55:55;;;;;;;;;;;2.40;99.90;;;;;;5148259;27;19969;-80
2022/03/09 07:58:21;;;;;;;;;;;2.60;99.90;;;;;;5148367;27;19924;-80
2022/03/09 08:00:47;;;;;;;;;;;2.80;99.90;;;;;;5148827;27;19923;-80
2022/03/09 08:03:12;;;;;;;;;;;2.90;99.90;;;;;;5096988;28;19923;-80
2022/03/09 08:05:38;;;;;;;;;;;3.00;99.90;;;;;;5148865;27;20014;-80
2022/03/09 08:08:03;;;;;;;;;;;3.20;99.90;;;;;;5148592;27;19953;-80
2022/03/09 08:10:29;;;;;;;;;;;3.30;99.90;;;;;;5097155;28;20252;-81
2022/03/09 08:12:55;;;;;;;;;;;3.40;99.90;;;;;;5131563;27;19975;-80
2022/03/09 08:15:21;;;;;;;;;;;3.50;99.90;;;;;;5148325;27;20410;-80
2022/03/09 08:17:46;;;;;;;;;;;3.60;99.90;;;;;;5097143;28;19924;-80
2022/03/09 08:20:12;;;;;;;;;;;3.80;99.90;;;;;;5148470;27;19978;-80
2022/03/09 08:22:39;;;;;;;;;;;4.00;99.90;;;;;;5080226;28;19931;-80
2022/03/09 08:25:05;;;;;;;;;;;3.90;99.90;;;;;;5096790;28;19923;-81
2022/03/09 08:27:31;;;;;;;;;;;4.10;99.90;;;;;;5113501;28;19928;-80
2022/03/09 08:29:56;;;;;;;;;;;4.20;99.90;;;;;;5131028;27;20010;-81
2022/03/09 08:32:23;;;;;;;;;;;4.30;99.90;;;;;;5113718;28;19931;-80
2022/03/09 08:34:48;;;;;;;;;;;4.40;99.90;;;;;;5113545;28;19983;-80
2022/03/09 08:37:14;;;;;;;;;;;4.50;99.90;;;;;;5113701;28;20018;-81
2022/03/09 08:39:43;;;;;;;;;;;4.60;99.90;;;;;;5096742;28;19924;-79
2022/03/09 08:42:09;;;;;;;;;;;4.70;99.90;;;;;;5105563;28;19928;-81
2022/03/09 08:44:34;;;;;;;;;;;4.80;99.90;;;;;;5107542;27;19924;-81
2022/03/09 08:47:00;;;;;;;;;;;4.90;99.90;;;;;;5112548;28;19994;-81
2022/03/09 08:49:26;;;;;;;;;;;5.00;99.90;;;;;;5127602;27;19924;-80
2022/03/09 08:51:51;;;;;;;;;;;5.00;99.90;;;;;;5105543;28;20356;-81
2022/03/09 08:54:17;;;;;;;;;;;5.10;99.90;;;;;;5101011;28;19924;-81
2022/03/09 08:56:43;;;;;;;;;;;5.20;99.90;;;;;;5108088;28;19931;-80
2022/03/09 08:59:08;;;;;;;;;;;5.30;99.90;;;;;;5123620;27;19931;-80
2022/03/09 09:01:34;;;;;;;;;;;5.40;99.90;;;;;;5095238;28;19938;-81
2022/03/09 09:03:59;;;;;;;;;;;5.50;99.90;;;;;;5105142;28;20014;-80
2022/03/09 09:06:25;;;;;;;;;;;5.60;99.90;;;;;;5104225;28;19924;-80
2022/03/09 09:08:51;;;;;;;;;;;5.60;99.90;;;;;;5105504;28;20348;-80
2022/03/09 09:11:16;;;;;;;;;;;5.70;99.90;;;;;;5101306;28;19927;-80
2022/03/09 09:13:42;;;;;;;;;;;5.80;99.90;;;;;;5124398;27;19928;-80
2022/03/09 09:16:08;;;;;;;;;;;6.00;99.90;;;;;;5112777;28;20316;-79
2022/03/09 09:18:33;;;;;;;;;;;6.00;99.90;;;;;;5084384;28;19998;-82
2022/03/09 09:20:59;;;;;;;;;;;6.00;99.90;;;;;;5133059;27;20034;-80
2022/03/09 09:23:25;;;;;;;;;;;6.10;99.90;;;;;;5115122;28;20374;-81
2022/03/09 09:25:50;;;;;;;;;;;6.20;99.90;;;;;;5108798;28;19966;-80
2022/03/09 09:28:17;;;;;;;;;;;6.20;99.90;;;;;;5088850;28;20340;-85
2022/03/09 09:30:43;;;;;;;;;;;6.40;99.90;;;;;;5109337;28;20414;-80
2022/03/09 09:33:08;;;;;;;;;;;6.50;99.90;;;;;;5109445;28;20062;-80
2022/03/09 09:35:34;;;;;;;;;;;6.50;99.90;;;;;;5117985;28;19932;-82
2022/03/09 09:38:06;;;;;;;;;;;6.70;99.90;;;;;;5095652;28;19923;-80
2022/03/09 09:40:33;;;;;;;;;;;6.80;99.90;;;;;;5076178;28;19923;-79
2022/03/09 09:42:59;;;;;;;;;;;6.90;99.90;;;;;;5109473;28;19935;-80
2022/03/09 09:45:24;;;;;;;;;;;7.00;99.90;;;;;;5094439;28;19924;-81
2022/03/09 09:47:51;;;;;;;;;;;7.10;99.90;;;;;;5079473;28;19931;-80
2022/03/09 09:50:17;;;;;;;;;;;7.00;99.90;;;;;;5105307;28;19924;-80
2022/03/09 09:52:43;;;;;;;;;;;7.00;99.90;;;;;;5103210;28;20423;-80
2022/03/09 09:55:09;;;;;;;;;;;7.10;99.90;;;;;;5110932;28;19934;-82
2022/03/09 09:57:35;;;;;;;;;;;7.10;99.90;;;;;;5077356;28;19927;-81
2022/03/09 10:00:04;;;;;;;;;;;7.30;99.90;;;;;;5126268;27;19924;-80
2022/03/09 10:02:30;;;;;;;;;;;7.40;99.90;;;;;;5116984;28;20390;-80
2022/03/09 10:04:56;;;;;;;;;;;7.50;99.90;;;;;;5103980;28;20367;-77
2022/03/09 10:07:21;;;;;;;;;;;7.60;99.90;;;;;;5107831;28;19931;-81
2022/03/09 10:09:47;;;;;;;;;;;7.70;99.90;;;;;;5105726;28;19924;-79
2022/03/09 10:12:13;;;;;;;;;;;7.70;99.90;;;;;;5095680;28;20415;-81
2022/03/09 10:14:50;;;;;;;;;;;7.80;99.90;;;;;;5114133;28;19976;-80
2022/03/09 10:17:20;;;;;;;;;;;7.80;99.50;;;;;;5108267;28;19972;-80
2022/03/09 10:19:47;;;;;;;;;;;7.90;99.90;;;;;;5132908;27;19924;-80
2022/03/09 10:22:26;;;;;;;;;;;8.00;99.90;;;;;;5136945;27;19923;-80
2022/03/09 10:24:53;;;;;;;;;;;8.10;99.20;;;;;;5129237;27;19924;-80
2022/03/09 10:27:37;;;;;;;;;;;8.20;99.40;;;;;;5135405;27;19923;-80
2022/03/09 10:30:04;;;;;;;;;;;8.30;99.80;;;;;;5115622;28;19976;-80
2022/03/09 10:32:48;;;;;;;;;;;8.40;99.00;;;;;;5116055;28;19927;-80
2022/03/09 10:35:15;;;;;;;;;;;8.40;98.90;;;;;;5116076;27;19980;-82
2022/03/09 10:37:41;;;;;;;;;;;8.50;98.50;;;;;;5115063;27;19923;-81
2022/03/09 10:40:08;;;;;;;;;;;8.70;98.30;;;;;;5153546;27;19923;-81
2022/03/09 10:42:35;;;;;;;;;;;8.80;97.90;;;;;;5136320;27;20678;-80
2022/03/09 10:45:03;;;;;;;;;;;8.90;97.40;;;;;;5135608;27;19972;-80
2022/03/09 10:47:30;;;;;;;;;;;9.10;97.30;;;;;;5118125;27;19924;-81
2022/03/09 10:50:06;;;;;;;;;;;9.30;99.90;;;;;;5098601;28;19931;-80
2022/03/09 10:52:46;;;;;;;;;;;9.50;98.50;;;;;;5115507;28;19933;-80
2022/03/09 10:55:27;;;;;;;;;;;9.40;96.90;;;;;;5115325;27;20317;-80
2022/03/09 10:58:05;;;;;;;;;;;9.50;96.10;;;;;;5098381;28;20048;-80
2022/03/09 11:00:34;;;;;;;;;;;9.50;95.50;;;;;;5128785;27;19927;-82
2022/03/09 11:03:03;;;;;;;;;;;9.60;95.50;;;;;;5078018;28;20433;-81
2022/03/09 11:05:29;;;;;;;;;;;9.70;94.80;;;;;;5097433;27;19928;-81
2022/03/09 11:07:54;;;;;;;;;;;9.80;95.80;;;;;;5102644;27;19923;-82
2022/03/09 11:10:20;;;;;;;;;;;10.00;95.80;;;;;;5134951;27;19923;-81
2022/03/09 11:12:46;;;;;;;;;;;9.90;92.90;;;;;;5100343;27;19932;-80
2022/03/09 11:15:13;;;;;;;;;;;10.20;94.50;;;;;;5111886;28;19946;-83
2022/03/09 11:17:39;;;;;;;;;;;10.20;92.80;;;;;;5147002;27;20013;-81
2022/03/09 11:20:05;;;;;;;;;;;10.50;93.50;;;;;;5134893;27;19970;-80
2022/03/09 11:22:30;;;;;;;;;;;10.50;91.60;;;;;;5140256;27;19931;-80
2022/03/09 11:24:56;;;;;;;;;;;10.70;91.20;;;;;;5113702;28;20372;-80
2022/03/09 11:27:22;;;;;;;;;;;10.70;89.20;;;;;;5114845;27;19924;-80
2022/03/09 11:29:49;;;;;;;;;;;10.70;84.40;;;;;;5112122;27;20035;-79
2022/03/09 11:32:31;;;;;;;;;;;10.80;86.40;;;;;;5110352;28;19924;-79
2022/03/09 11:34:57;;;;;;;;;;;11.00;88.20;;;;;;5093702;28;20653;-80
2022/03/09 11:37:41;;;;;;;;;;;11.20;86.80;;;;;;5095807;28;19924;-80
2022/03/09 11:40:06;;;;;;;;;;;11.40;84.20;;;;;;5126515;27;19927;-83
2022/03/09 11:42:36;;;;;;;;;;;11.60;82.80;;;;;;5112575;27;19973;-81
2022/03/09 11:45:13;;;;;;;;;;;11.80;83.50;;;;;;5114239;28;19924;-81
2022/03/09 11:47:57;;;;;;;;;;;11.90;82.70;;;;;;5148867;27;19972;-81
2022/03/09 11:50:23;;;;;;;;;;;12.20;85.90;;;;;;5094626;27;19977;-81
2022/03/09 11:52:58;;;;;;;;;;;12.20;80.10;;;;;;5148150;27;19928;-82
2022/03/09 11:55:23;;;;;;;;;;;12.30;80.70;;;;;;5113562;28;19932;-81
2022/03/09 11:57:49;;;;;;;;;;;12.40;76.30;;;;;;5113412;28;20386;-81
2022/03/09 12:00:16;;;;;;;;;;;12.40;76.00;;;;;;5164701;27;19927;-81
2022/03/09 12:02:43;;;;;;;;;;;12.50;75.80;;;;;;5097120;28;19955;-82
2022/03/09 12:05:31;;;;;;;;;;;12.70;75.50;;;;;;5105327;27;19928;-82
2022/03/09 12:08:03;;;;;;;;;;;12.90;73.00;;;;;;5113218;28;19928;-81
2022/03/09 12:10:44;;;;;;;;;;;13.00;71.30;;;;;;5113450;28;20567;-81
2022/03/09 12:13:10;;;;;;;;;;;13.30;74.90;;;;;;5096437;28;19923;-81
2022/03/09 12:15:54;;;;;;;;;;;13.40;71.90;;;;;;5131699;27;20006;-81
2022/03/09 12:18:33;;;;;;;;;;;13.30;66.00;;;;;;5151127;27;20364;-81
2022/03/09 12:20:59;;;;;;;;;;;13.10;67.00;;;;;;5116832;27;20022;-83
2022/03/09 12:23:24;;;;;;;;;;;13.00;67.30;;;;;;5144742;27;20020;-83
2022/03/09 12:25:50;;;;;;;;;;;13.00;67.40;;;;;;5114561;27;19930;-83
2022/03/09 12:28:25;;;;;;;;;;;13.20;68.30;;;;;;5091948;28;20342;-83
2022/03/09 12:30:52;;;;;;;;;;;13.30;65.50;;;;;;5105277;28;20322;-83
2022/03/09 12:33:22;;;;;;;;;;;13.30;66.90;;;;;;5125141;27;19935;-83
2022/03/09 12:35:48;;;;;;;;;;;13.50;66.70;;;;;;5095490;28;20427;-82
2022/03/09 12:38:14;;;;;;;;;;;13.50;67.30;;;;;;5104320;28;20007;-83
2022/03/09 12:40:40;;;;;;;;;;;13.60;64.00;;;;;;5099221;28;19930;-82
2022/03/09 12:43:06;;;;;;;;;;;13.60;66.00;;;;;;5092017;28;19928;-83
2022/03/09 12:45:50;;;;;;;;;;;13.60;63.90;;;;;;5092491;28;19985;-82
2022/03/09 12:48:20;;;;;;;;;;;13.60;65.40;;;;;;5092593;28;19924;-82
2022/03/09 12:50:45;;;;;;;;;;;13.60;68.30;;;;;;5102196;28;19946;-82
2022/03/09 12:53:12;;;;;;;;;;;13.70;65.40;;;;;;5112901;28;20364;-83
2022/03/09 12:55:38;;;;;;;;;;;13.90;66.10;;;;;;5091718;28;19924;-82
2022/03/09 12:58:04;;;;;;;;;;;13.60;63.70;;;;;;5092279;28;19932;-82
2022/03/09 13:00:33;;;;;;;;;;;13.70;61.40;;;;;;5092476;28;19924;-82
2022/03/09 13:03:00;;;;;;;;;;;13.60;62.20;;;;;;5092477;28;20274;-82
2022/03/09 13:05:30;;;;;;;;;;;13.80;65.50;;;;;;5092072;28;20023;-81
2022/03/09 13:07:56;;;;;;;;;;;13.80;63.10;;;;;;5092074;28;19973;-82
2022/03/09 13:10:24;;;;;;;;;;;13.60;62.10;;;;;;5130994;27;20010;-82
2022/03/09 13:12:54;;;;;;;;;;;13.60;62.00;;;;;;5115328;27;19931;-82
2022/03/09 13:15:22;;;;;;;;;;;13.50;62.30;;;;;;5126072;27;19931;-82
2022/03/09 13:17:49;;;;;;;;;;;13.50;61.50;;;;;;5094996;28;19987;-82
2022/03/09 13:20:15;;;;;;;;;;;13.40;59.90;;;;;;5098595;27;19946;-82
2022/03/09 13:22:45;;;;;;;;;;;13.40;62.90;;;;;;5092813;28;19924;-82
2022/03/09 13:25:11;;;;;;;;;;;13.50;61.80;;;;;;5091516;28;20395;-81
2022/03/09 13:27:36;;;;;;;;;;;13.30;60.60;;;;;;5091624;28;19924;-81
2022/03/09 13:30:13;;;;;;;;;;;13.50;60.30;;;;;;5112696;28;19923;-82
2022/03/09 13:32:38;;;;;;;;;;;13.60;62.10;;;;;;5132804;28;19923;-82
2022/03/09 13:35:04;;;;;;;;;;;13.60;62.40;;;;;;5132103;28;20402;-82
2022/03/09 13:37:37;;;;;;;;;;;13.60;61.70;;;;;;5132808;28;19924;-82
2022/03/09 13:40:05;;;;;;;;;;;13.60;63.10;;;;;;5122954;28;19923;-82
2022/03/09 13:42:34;;;;;;;;;;;13.70;60.70;;;;;;5108586;28;19950;-83
2022/03/09 13:45:02;;;;;;;;;;;13.80;58.70;;;;;;5111680;28;20557;-82
2022/03/09 13:47:28;;;;;;;;;;;14.00;58.20;;;;;;5112055;28;20006;-82
2022/03/09 13:49:53;;;;;;;;;;;14.40;61.00;;;;;;5093151;28;20015;-82
2022/03/09 13:52:19;;;;;;;;;;;14.80;59.50;;;;;;5110570;27;20013;-82
2022/03/09 13:54:45;;;;;;;;;;;15.20;58.80;;;;;;5091168;28;19973;-82
2022/03/09 13:57:11;;;;;;;;;;;15.40;57.50;;;;;;5110021;28;19924;-82
2022/03/09 13:59:40;;;;;;;;;;;16.00;56.10;;;;;;5097644;28;19924;-82
2022/03/09 14:02:19;;;;;;;;;;;16.10;54.10;;;;;;5126884;27;19928;-81
2022/03/09 14:04:51;;;;;;;;;;;16.30;53.00;;;;;;5127915;27;19938;-82
2022/03/09 14:07:17;;;;;;;;;;;16.50;54.80;;;;;;5115397;28;19977;-81
2022/03/09 14:10:02;;;;;;;;;;;16.70;52.40;;;;;;5095899;28;19993;-83
2022/03/09 14:12:28;;;;;;;;;;;16.80;53.80;;;;;;5095484;27;19974;-82
2022/03/09 14:14:53;;;;;;;;;;;17.00;54.00;;;;;;5149358;27;19935;-83
2022/03/09 14:17:19;;;;;;;;;;;17.40;54.40;;;;;;5094754;28;19924;-82
2022/03/09 14:19:44;;;;;;;;;;;17.60;49.70;;;;;;5105436;28;19964;-81
2022/03/09 14:22:10;;;;;;;;;;;17.70;51.20;;;;;;5099096;28;19931;-81
2022/03/09 14:24:36;;;;;;;;;;;18.00;49.60;;;;;;5099000;28;19963;-81
2022/03/09 14:27:01;;;;;;;;;;;17.60;49.00;;;;;;5133401;27;19949;-81